Miami, Florida
Traffic Map
Current Weather Conditions
Miami, Florida
Overcast Thunderstorm
Overcast
81°
Feels Like: 87°
Wind Chill: 81° Ceiling: 30000
Heat Index: 87° Visibility: 10mi
Dew Point: 76° Wind: 3mph
Humidity: 85% Direction: 40° (NE)
Pressure: 29.99in Gusts: 0mph
Raw Report DataKMIA 261211Z 04003KT 10SM TS SCT025CB OVC300 27/24 A2999 RMK AO2 LTG DSNT NE TSB05 OCNL LTGCG NE TS NE MOV NW CB DSNT SE MOV NW T02720244 $
Traffic Incident Summary
Active as of:
Severity:
Category:
InformationThere was an issue retrieving the traffic information for this location. Please try a different location or try again shortly.
Advertisements
Track Severe Weather on mobile